Time;durP1;ratioP1;P1;durP2;ratioP2;P2;SDS_P1;SDS_P2;PMS_P1;PMS_P2;Temp;Humidity;BMP_temperature;BMP_pressure;BME280_temperature;BME280_humidity;BME280_pressure;Samples;Min_cycle;Max_cycle;Signal;HPM_P1;HPM_P2
2023/03/23 00:00:53;;;;;;;3.40;2.97;;;12.40;64.20;;;;;;4998858;28;20457;-66
2023/03/23 00:03:21;;;;;;;4.83;3.63;;;12.40;65.10;;;;;;5000434;28;20479;-66
2023/03/23 00:05:50;;;;;;;4.20;3.80;;;12.40;67.40;;;;;;5000651;28;20457;-67
2023/03/23 00:08:17;;;;;;;3.50;2.50;;;12.40;64.70;;;;;;5005643;28;20479;-67
2023/03/23 00:10:48;;;;;;;5.43;2.80;;;12.50;60.20;;;;;;4997096;28;20446;-66
2023/03/23 00:13:19;;;;;;;2.93;2.63;;;12.60;60.10;;;;;;5003625;28;20465;-67
2023/03/23 00:15:48;;;;;;;3.60;2.43;;;12.70;58.80;;;;;;5004988;28;20454;-67
2023/03/23 00:18:20;;;;;;;3.10;2.30;;;12.90;58.90;;;;;;4998088;28;21792;-67
2023/03/23 00:20:48;;;;;;;2.93;2.13;;;12.90;57.70;;;;;;5000956;28;21036;-66
2023/03/23 00:23:18;;;;;;;2.93;2.50;;;13.00;57.60;;;;;;5002633;28;20568;-67
2023/03/23 00:25:48;;;;;;;3.77;2.50;;;13.00;58.00;;;;;;5000267;28;20459;-66
2023/03/23 00:28:15;;;;;;;5.20;3.07;;;13.00;57.70;;;;;;4998664;28;20481;-66
2023/03/23 00:30:44;;;;;;;5.00;3.00;;;13.00;57.40;;;;;;4998731;28;20808;-66
2023/03/23 00:33:13;;;;;;;3.93;2.73;;;13.10;57.20;;;;;;4999605;28;20536;-66
2023/03/23 00:35:41;;;;;;;2.87;2.40;;;13.20;57.00;;;;;;5001467;28;20461;-67
2023/03/23 00:38:08;;;;;;;5.30;2.50;;;13.20;56.40;;;;;;5004050;28;20470;-66
2023/03/23 00:40:36;;;;;;;4.43;2.20;;;13.30;56.50;;;;;;4997360;28;20466;-66
2023/03/23 00:43:04;;;;;;;3.83;2.30;;;13.30;55.40;;;;;;5000223;28;20490;-66
2023/03/23 00:45:34;;;;;;;2.30;2.10;;;13.40;55.60;;;;;;5002587;28;20869;-67
2023/03/23 00:48:02;;;;;;;2.83;2.03;;;13.40;56.40;;;;;;4998976;28;20488;-67
2023/03/23 00:50:29;;;;;;;3.23;2.40;;;13.30;55.70;;;;;;4998587;28;20450;-66
2023/03/23 00:52:56;;;;;;;4.23;1.97;;;13.30;55.80;;;;;;4998597;28;20450;-66
2023/03/23 00:55:24;;;;;;;3.20;1.97;;;13.40;55.80;;;;;;5001416;28;20449;-66
2023/03/23 00:57:51;;;;;;;3.33;2.13;;;13.40;55.60;;;;;;5001656;28;20549;-66
2023/03/23 01:00:20;;;;;;;3.13;2.10;;;13.30;56.80;;;;;;4999327;28;20478;-68
2023/03/23 01:02:47;;;;;;;2.60;2.27;;;13.30;55.70;;;;;;4998048;28;20445;-66
2023/03/23 01:05:14;;;;;;;2.70;2.37;;;13.30;55.80;;;;;;5000539;28;20448;-67
2023/03/23 01:07:41;;;;;;;2.93;2.07;;;13.30;55.80;;;;;;4995875;28;20470;-64
2023/03/23 01:10:09;;;;;;;3.47;2.23;;;13.20;56.70;;;;;;5003647;28;20449;-67
2023/03/23 01:12:36;;;;;;;3.03;2.70;;;13.10;57.80;;;;;;5000419;28;20457;-66
2023/03/23 01:15:03;;;;;;;4.03;2.47;;;13.10;57.60;;;;;;4998041;28;20434;-65
2023/03/23 01:17:31;;;;;;;3.97;2.10;;;13.10;57.40;;;;;;4999564;28;20468;-65
2023/03/23 01:19:57;;;;;;;4.20;2.63;;;13.20;58.30;;;;;;4995770;28;20439;-66
2023/03/23 01:22:25;;;;;;;5.30;2.80;;;13.10;58.00;;;;;;5001914;28;20452;-63
2023/03/23 01:24:52;;;;;;;7.70;2.80;;;13.10;57.10;;;;;;4999089;28;21002;-65
2023/03/23 01:27:19;;;;;;;4.43;2.30;;;13.10;56.30;;;;;;4998774;28;20463;-65
2023/03/23 01:29:45;;;;;;;2.60;2.13;;;13.10;55.90;;;;;;4998604;28;20451;-65
2023/03/23 01:32:12;;;;;;;2.50;2.10;;;13.20;55.60;;;;;;5000054;28;20453;-66
2023/03/23 01:34:40;;;;;;;6.90;2.87;;;13.30;55.10;;;;;;5000096;28;20972;-66
2023/03/23 01:37:07;;;;;;;3.03;2.27;;;13.30;54.60;;;;;;5004209;28;20482;-65
2023/03/23 01:39:36;;;;;;;2.10;1.80;;;13.30;55.70;;;;;;4997915;28;20454;-66
2023/03/23 01:42:02;;;;;;;6.27;3.30;;;13.30;54.30;;;;;;5000107;28;22010;-67
2023/03/23 01:45:06;;;;;;;3.10;2.50;;;13.30;54.50;;;;;;4997820;28;20470;-66
2023/03/23 01:47:34;;;;;;;3.33;2.97;;;13.40;54.10;;;;;;4994761;28;20466;-66
2023/03/23 01:50:02;;;;;;;4.10;2.97;;;13.40;53.90;;;;;;5000282;28;20448;-66
2023/03/23 01:52:30;;;;;;;2.47;2.20;;;13.40;54.30;;;;;;5001856;28;20450;-67
2023/03/23 01:54:57;;;;;;;3.23;2.90;;;13.30;53.80;;;;;;4993109;28;20841;-66
2023/03/23 01:57:27;;;;;;;3.20;2.60;;;13.40;54.30;;;;;;4998467;28;20482;-65
2023/03/23 01:59:57;;;;;;;3.80;2.87;;;13.30;54.60;;;;;;4999475;28;20462;-66
2023/03/23 02:02:26;;;;;;;5.63;2.93;;;13.20;55.00;;;;;;4995349;28;20521;-65
2023/03/23 02:04:57;;;;;;;4.50;2.40;;;13.10;55.00;;;;;;5000635;28;20499;-66
2023/03/23 02:07:26;;;;;;;3.43;2.80;;;13.10;54.80;;;;;;4995556;28;20477;-66
2023/03/23 02:09:53;;;;;;;3.07;2.73;;;13.20;54.60;;;;;;4995679;28;20449;-65
2023/03/23 02:12:20;;;;;;;4.43;3.60;;;13.10;55.80;;;;;;5001189;28;21118;-65
2023/03/23 02:14:47;;;;;;;4.30;3.37;;;13.00;54.80;;;;;;4996911;28;20443;-66
2023/03/23 02:17:20;;;;;;;4.40;2.87;;;13.00;55.70;;;;;;4997202;28;20471;-67
2023/03/23 02:20:13;;;;;;;3.37;2.40;;;12.90;56.30;;;;;;5000105;28;20457;-66
2023/03/23 02:23:06;;;;;;;3.80;3.10;;;12.80;56.10;;;;;;5000320;28;20875;-66
2023/03/23 02:25:47;;;;;;;4.30;2.93;;;12.70;56.80;;;;;;5001141;28;20447;-66
2023/03/23 02:28:46;;;;;;;7.63;3.00;;;12.70;57.30;;;;;;4994884;28;20465;-66
2023/03/23 02:31:29;;;;;;;4.20;2.57;;;12.70;57.90;;;;;;4937310;28;20453;-65
2023/03/23 02:33:59;;;;;;;5.30;2.90;;;12.70;57.90;;;;;;4997433;28;20448;-66
2023/03/23 02:36:33;;;;;;;3.77;2.60;;;12.70;57.10;;;;;;5002869;28;20840;-66
2023/03/23 02:39:05;;;;;;;3.70;3.00;;;12.70;58.10;;;;;;4997411;28;20451;-65
2023/03/23 02:41:35;;;;;;;4.57;3.13;;;12.80;56.80;;;;;;5001072;28;20461;-65
2023/03/23 02:44:04;;;;;;;4.80;3.60;;;12.80;56.00;;;;;;5002549;28;20485;-67
2023/03/23 02:46:32;;;;;;;3.53;3.20;;;12.90;56.70;;;;;;4998711;28;20462;-66
2023/03/23 02:49:02;;;;;;;3.80;2.80;;;12.80;56.90;;;;;;4999919;28;20964;-66
2023/03/23 02:51:30;;;;;;;3.93;2.60;;;12.70;57.00;;;;;;5002369;28;20891;-66
2023/03/23 02:53:58;;;;;;;3.50;3.00;;;12.70;56.10;;;;;;5004269;28;20484;-66
2023/03/23 02:56:27;;;;;;;3.00;2.70;;;12.70;56.60;;;;;;5000078;28;20458;-67
2023/03/23 02:58:54;;;;;;;3.10;2.80;;;12.60;56.90;;;;;;5005163;28;20462;-66
2023/03/23 03:01:49;;;;;;;5.13;2.60;;;12.60;56.40;;;;;;5001231;28;20454;-65
2023/03/23 03:04:20;;;;;;;3.73;3.40;;;12.50;57.00;;;;;;5004733;28;20577;-66
2023/03/23 03:06:57;;;;;;;3.00;2.40;;;12.50;57.30;;;;;;4999686;28;20443;-67
2023/03/23 03:09:31;;;;;;;3.10;2.23;;;12.40;58.10;;;;;;4999716;28;20509;-65
2023/03/23 03:12:05;;;;;;;4.30;2.70;;;12.30;59.10;;;;;;5002589;28;20442;-65
2023/03/23 03:14:37;;;;;;;2.53;2.33;;;12.40;58.60;;;;;;5006293;28;20453;-65
2023/03/23 03:17:10;;;;;;;3.93;3.30;;;12.60;58.00;;;;;;5001210;28;20477;-66
2023/03/23 03:19:41;;;;;;;4.30;3.10;;;12.70;56.90;;;;;;5000000;28;20827;-66
2023/03/23 03:22:09;;;;;;;4.17;2.83;;;12.70;57.20;;;;;;5001570;28;20452;-65
2023/03/23 03:24:38;;;;;;;3.10;2.47;;;12.70;57.40;;;;;;5001048;28;20509;-63
2023/03/23 03:27:11;;;;;;;3.60;2.80;;;12.70;57.90;;;;;;5003703;28;20850;-65
2023/03/23 03:29:42;;;;;;;4.10;3.20;;;12.70;57.50;;;;;;5001355;28;20455;-65
2023/03/23 03:32:13;;;;;;;5.03;3.47;;;12.90;57.70;;;;;;4997799;28;20458;-66
2023/03/23 03:34:42;;;;;;;4.80;3.40;;;13.00;57.50;;;;;;5001696;28;20453;-64
2023/03/23 03:37:11;;;;;;;5.03;3.73;;;13.00;56.40;;;;;;5002887;28;20661;-66
2023/03/23 03:39:39;;;;;;;4.97;3.20;;;13.00;57.00;;;;;;5004844;28;20469;-66
2023/03/23 03:42:07;;;;;;;4.63;3.60;;;13.00;57.20;;;;;;5004269;28;20540;-65
2023/03/23 03:44:34;;;;;;;5.80;3.80;;;13.00;57.00;;;;;;4999269;28;20470;-66
2023/03/23 03:47:01;;;;;;;4.73;3.40;;;13.00;57.20;;;;;;5006415;28;20472;-65
2023/03/23 03:49:28;;;;;;;5.70;4.10;;;13.00;57.50;;;;;;5004455;28;20813;-65
2023/03/23 03:51:56;;;;;;;4.10;3.60;;;12.90;57.70;;;;;;5001583;28;20968;-66
2023/03/23 03:54:22;;;;;;;5.90;4.23;;;12.90;57.40;;;;;;5002898;28;20450;-66
2023/03/23 03:56:51;;;;;;;3.43;3.13;;;12.90;57.70;;;;;;5002969;28;20948;-66
2023/03/23 03:59:18;;;;;;;4.20;3.60;;;12.90;57.60;;;;;;5002839;28;20919;-66
2023/03/23 04:01:45;;;;;;;3.70;2.87;;;12.80;57.80;;;;;;4998875;28;20442;-66
2023/03/23 04:04:12;;;;;;;4.40;4.00;;;12.80;58.60;;;;;;5001463;28;20481;-66
2023/03/23 04:06:38;;;;;;;3.43;3.13;;;12.80;57.60;;;;;;5001369;28;20538;-66
2023/03/23 04:09:07;;;;;;;4.47;4.07;;;12.80;57.70;;;;;;5001148;28;20828;-66
2023/03/23 04:11:34;;;;;;;5.30;3.03;;;12.80;57.70;;;;;;4994436;28;20455;-66
2023/03/23 04:14:02;;;;;;;5.03;3.43;;;12.80;57.50;;;;;;5000458;28;20445;-65
2023/03/23 04:16:29;;;;;;;3.20;2.90;;;12.80;57.40;;;;;;5003012;28;20457;-66
2023/03/23 04:18:56;;;;;;;9.13;3.27;;;12.90;57.70;;;;;;5001935;28;20451;-65
2023/03/23 04:21:23;;;;;;;2.93;2.40;;;12.90;56.90;;;;;;4997154;28;20520;-66
2023/03/23 04:23:50;;;;;;;4.00;2.90;;;12.90;57.20;;;;;;5000591;28;20447;-66
2023/03/23 04:26:18;;;;;;;4.70;3.20;;;12.80;58.20;;;;;;4999461;28;20462;-65
2023/03/23 04:28:45;;;;;;;3.97;2.93;;;12.90;57.40;;;;;;5002533;28;20486;-66
2023/03/23 04:31:12;;;;;;;4.90;2.70;;;12.90;56.90;;;;;;4996682;28;20447;-65
2023/03/23 04:33:41;;;;;;;4.80;3.07;;;12.80;58.40;;;;;;4998458;28;20478;-66
2023/03/23 04:36:08;;;;;;;4.50;3.17;;;12.70;58.10;;;;;;4999381;28;20789;-66
2023/03/23 04:38:34;;;;;;;3.33;2.97;;;12.80;57.60;;;;;;4999949;28;20471;-66
2023/03/23 04:41:02;;;;;;;3.53;3.10;;;12.80;57.20;;;;;;4999131;28;20452;-65
2023/03/23 04:43:30;;;;;;;2.77;2.47;;;12.90;56.70;;;;;;5003175;28;20453;-65
2023/03/23 04:45:58;;;;;;;3.40;2.70;;;12.90;57.60;;;;;;4997565;28;21177;-65
2023/03/23 04:48:25;;;;;;;3.60;2.57;;;12.90;57.00;;;;;;4999981;28;21378;-65
2023/03/23 04:50:52;;;;;;;3.77;2.73;;;12.90;57.20;;;;;;4999470;28;20449;-66
2023/03/23 04:53:20;;;;;;;3.10;2.90;;;12.80;58.60;;;;;;5001349;28;20445;-65
2023/03/23 04:55:48;;;;;;;2.90;2.70;;;12.70;59.00;;;;;;4999475;28;20446;-65
2023/03/23 04:58:17;;;;;;;2.70;2.30;;;12.60;58.80;;;;;;5002085;28;20506;-65
2023/03/23 05:00:49;;;;;;;5.77;3.07;;;12.60;58.20;;;;;;5003554;28;20457;-65
2023/03/23 05:03:16;;;;;;;5.00;2.40;;;12.70;58.80;;;;;;4998254;28;20461;-66
2023/03/23 05:05:46;;;;;;;4.60;2.93;;;12.70;57.90;;;;;;5004385;28;20477;-65
2023/03/23 05:08:13;;;;;;;4.80;2.60;;;12.60;59.20;;;;;;4996967;28;20474;-65
2023/03/23 05:10:40;;;;;;;3.90;2.53;;;12.80;57.90;;;;;;5000536;28;20442;-65
2023/03/23 05:13:07;;;;;;;3.07;2.77;;;12.90;57.20;;;;;;5004280;28;20456;-64
2023/03/23 05:15:34;;;;;;;5.30;2.67;;;12.90;57.70;;;;;;4996296;28;20822;-65
2023/03/23 05:18:02;;;;;;;4.67;2.57;;;12.80;57.30;;;;;;4995060;28;20566;-65
2023/03/23 05:20:30;;;;;;;3.87;2.90;;;12.80;57.80;;;;;;5001548;28;20452;-66
2023/03/23 05:22:57;;;;;;;3.30;2.60;;;12.90;57.80;;;;;;4996495;28;20442;-66
2023/03/23 05:25:24;;;;;;;4.80;2.30;;;12.80;58.80;;;;;;4999039;28;20487;-65
2023/03/23 05:27:52;;;;;;;4.63;2.60;;;12.90;58.40;;;;;;5003869;28;20475;-66
2023/03/23 05:30:21;;;;;;;3.97;3.57;;;13.10;57.00;;;;;;4998447;28;20472;-66
2023/03/23 05:32:50;;;;;;;3.37;2.63;;;13.10;57.00;;;;;;4994629;28;20516;-67
2023/03/23 05:35:22;;;;;;;4.07;3.40;;;13.10;57.00;;;;;;5000698;28;20438;-66
2023/03/23 05:37:49;;;;;;;3.40;2.90;;;13.20;56.80;;;;;;4999180;28;20469;-66
2023/03/23 05:40:16;;;;;;;6.93;3.67;;;13.20;56.50;;;;;;4997288;28;20457;-65
2023/03/23 05:42:45;;;;;;;3.90;2.93;;;13.20;57.20;;;;;;5001568;28;20465;-66
2023/03/23 05:45:12;;;;;;;3.80;3.20;;;13.10;58.70;;;;;;4999851;28;20506;-65
2023/03/23 05:47:40;;;;;;;5.37;3.40;;;13.00;58.00;;;;;;4998646;28;20461;-67
2023/03/23 05:50:08;;;;;;;3.17;2.87;;;13.00;59.20;;;;;;5001445;28;20590;-66
2023/03/23 05:52:38;;;;;;;3.33;2.47;;;13.00;59.60;;;;;;4996049;28;20940;-65
2023/03/23 05:55:07;;;;;;;4.87;3.03;;;12.90;60.20;;;;;;4997635;28;20448;-66
2023/03/23 05:57:34;;;;;;;3.60;2.87;;;12.90;59.00;;;;;;4999410;28;20488;-66
2023/03/23 06:00:11;;;;;;;5.63;3.50;;;12.90;60.20;;;;;;4993823;28;20465;-64
2023/03/23 06:02:38;;;;;;;5.27;3.10;;;12.90;59.20;;;;;;5000881;28;20476;-65
2023/03/23 06:05:06;;;;;;;7.13;3.13;;;13.10;58.20;;;;;;5001542;28;20490;-64
2023/03/23 06:07:33;;;;;;;6.20;3.03;;;13.30;57.40;;;;;;4999450;28;20474;-65
2023/03/23 06:10:01;;;;;;;5.17;3.07;;;13.40;57.70;;;;;;5001042;28;20583;-66
2023/03/23 06:12:28;;;;;;;3.43;2.80;;;13.40;57.00;;;;;;4999061;28;20446;-66
2023/03/23 06:14:55;;;;;;;3.47;2.47;;;13.60;56.80;;;;;;4994504;28;20449;-65
2023/03/23 06:17:22;;;;;;;2.67;2.30;;;13.60;56.40;;;;;;4997770;28;20472;-66
2023/03/23 06:19:50;;;;;;;3.53;2.27;;;13.70;55.60;;;;;;5001622;28;20546;-67
2023/03/23 06:22:17;;;;;;;5.43;2.63;;;13.80;55.50;;;;;;5001733;28;20461;-64
2023/03/23 06:24:44;;;;;;;3.30;2.40;;;13.80;55.90;;;;;;4995663;28;21172;-65
2023/03/23 06:27:13;;;;;;;2.17;1.90;;;13.90;55.50;;;;;;5001217;28;20850;-66
2023/03/23 06:29:40;;;;;;;4.10;2.30;;;13.90;55.80;;;;;;4995812;28;21051;-66
2023/03/23 06:32:07;;;;;;;2.30;1.90;;;13.90;55.30;;;;;;5001377;28;20469;-65
2023/03/23 06:34:34;;;;;;;2.83;2.20;;;14.00;55.20;;;;;;4998768;28;20447;-66
2023/03/23 06:37:01;;;;;;;2.67;1.90;;;14.10;54.40;;;;;;4998082;28;20480;-66
2023/03/23 06:39:29;;;;;;;4.40;2.40;;;14.10;54.50;;;;;;5002601;28;20454;-66
2023/03/23 06:41:59;;;;;;;2.20;1.77;;;14.10;54.70;;;;;;5000747;28;20458;-65
2023/03/23 06:44:27;;;;;;;2.80;1.70;;;14.20;54.60;;;;;;5001141;28;20455;-65
2023/03/23 06:46:54;;;;;;;2.70;1.90;;;14.10;54.60;;;;;;4999923;28;20475;-65
2023/03/23 06:49:22;;;;;;;4.00;1.97;;;14.10;54.90;;;;;;4996507;28;20462;-65
2023/03/23 06:51:48;;;;;;;2.43;2.20;;;14.10;55.70;;;;;;4996543;28;20533;-65
2023/03/23 06:54:15;;;;;;;2.40;1.70;;;14.10;55.90;;;;;;4997516;28;20830;-65
2023/03/23 06:56:42;;;;;;;3.60;2.00;;;14.20;55.90;;;;;;4997726;28;20463;-66
2023/03/23 06:59:10;;;;;;;2.67;1.87;;;14.30;55.40;;;;;;5000212;28;20450;-66
2023/03/23 07:01:38;;;;;;;3.20;1.90;;;14.60;55.30;;;;;;4995496;28;20950;-66
2023/03/23 07:04:05;;;;;;;4.10;2.43;;;14.90;54.80;;;;;;4999943;28;20819;-65
2023/03/23 07:06:32;;;;;;;2.80;1.90;;;15.10;54.10;;;;;;5000010;28;20859;-64
2023/03/23 07:08:58;;;;;;;2.53;1.27;;;15.20;54.20;;;;;;4994004;28;21003;-65
2023/03/23 07:11:26;;;;;;;2.20;1.90;;;15.30;53.40;;;;;;4999413;28;20835;-65
2023/03/23 07:13:53;;;;;;;3.20;1.70;;;15.40;53.50;;;;;;5002392;28;20454;-64
2023/03/23 07:16:20;;;;;;;3.90;2.20;;;15.20;54.70;;;;;;4996532;28;20455;-65
2023/03/23 07:18:49;;;;;;;2.47;2.00;;;15.20;54.60;;;;;;4998420;28;20559;-65
2023/03/23 07:21:16;;;;;;;3.00;1.80;;;15.20;54.10;;;;;;4997716;28;20459;-68
2023/03/23 07:23:42;;;;;;;3.30;1.63;;;15.20;54.60;;;;;;4995373;28;20824;-65
2023/03/23 07:26:09;;;;;;;3.53;1.87;;;15.10;54.50;;;;;;5000596;28;20478;-65
2023/03/23 07:28:36;;;;;;;1.60;1.43;;;15.10;53.00;;;;;;5003543;28;20466;-66
2023/03/23 07:31:03;;;;;;;3.00;1.93;;;15.10;52.90;;;;;;5008480;28;20993;-65
2023/03/23 07:33:33;;;;;;;1.80;1.70;;;15.10;53.20;;;;;;5002564;28;20454;-68
2023/03/23 07:36:02;;;;;;;3.47;2.10;;;15.10;53.90;;;;;;5002339;28;20450;-67
2023/03/23 07:38:29;;;;;;;2.87;2.20;;;15.00;53.00;;;;;;5001752;28;20568;-67
2023/03/23 07:40:57;;;;;;;3.53;2.20;;;15.10;53.30;;;;;;5000603;28;20477;-68
2023/03/23 07:43:24;;;;;;;2.93;1.50;;;15.10;53.10;;;;;;5006460;28;20476;-67
2023/03/23 07:45:51;;;;;;;3.33;1.93;;;15.20;53.40;;;;;;5005676;28;20478;-67
2023/03/23 07:48:18;;;;;;;2.37;2.17;;;15.30;52.80;;;;;;5003456;28;20843;-67
2023/03/23 07:50:45;;;;;;;2.30;1.47;;;15.40;52.90;;;;;;5006036;28;20573;-66
2023/03/23 07:53:14;;;;;;;6.80;2.13;;;15.50;52.80;;;;;;5000154;28;20991;-66
2023/03/23 07:55:40;;;;;;;2.07;1.80;;;15.70;52.40;;;;;;5000724;28;20451;-66
2023/03/23 07:58:08;;;;;;;5.60;2.13;;;15.90;52.60;;;;;;5003153;28;20470;-66
2023/03/23 08:00:35;;;;;;;1.70;1.60;;;16.30;52.00;;;;;;5007778;28;20525;-66
2023/03/23 08:03:02;;;;;;;2.73;1.97;;;16.70;50.10;;;;;;5004152;28;20471;-66
2023/03/23 08:05:29;;;;;;;3.47;1.87;;;16.90;50.30;;;;;;5006171;28;20485;-67
2023/03/23 08:07:56;;;;;;;1.80;1.70;;;17.10;49.30;;;;;;5002995;28;20474;-67
2023/03/23 08:10:26;;;;;;;3.47;1.97;;;17.00;49.90;;;;;;5001073;28;20466;-67
2023/03/23 08:12:54;;;;;;;3.70;1.90;;;17.00;50.50;;;;;;5003945;28;20472;-67
2023/03/23 08:15:22;;;;;;;2.37;1.50;;;17.00;50.60;;;;;;5005981;28;20446;-67
2023/03/23 08:17:50;;;;;;;4.27;2.00;;;17.10;50.60;;;;;;5003064;28;20469;-65
2023/03/23 08:20:18;;;;;;;3.90;1.90;;;16.90;51.00;;;;;;4999797;28;20460;-67
2023/03/23 08:22:53;;;;;;;2.70;1.70;;;16.80;50.40;;;;;;5002497;28;20453;-66
2023/03/23 08:25:21;;;;;;;3.83;2.07;;;16.70;51.10;;;;;;5003689;28;20963;-66
2023/03/23 08:27:49;;;;;;;1.70;1.60;;;16.50;51.40;;;;;;5006229;28;20466;-67
2023/03/23 08:30:19;;;;;;;2.40;1.57;;;16.40;52.10;;;;;;4999568;28;20456;-66
2023/03/23 08:32:46;;;;;;;2.43;2.00;;;16.40;52.30;;;;;;4998957;28;20875;-66
2023/03/23 08:35:14;;;;;;;4.43;2.40;;;16.30;52.30;;;;;;5000203;28;20448;-65
2023/03/23 08:37:42;;;;;;;2.83;1.70;;;16.30;52.80;;;;;;4997390;28;20471;-65
2023/03/23 08:40:10;;;;;;;2.33;1.73;;;16.30;53.10;;;;;;5001186;28;20509;-66
2023/03/23 08:42:38;;;;;;;2.37;1.80;;;16.30;53.00;;;;;;4997630;28;20462;-66
2023/03/23 08:45:09;;;;;;;2.07;1.87;;;16.30;53.40;;;;;;5001203;28;20448;-65
2023/03/23 08:47:36;;;;;;;2.70;1.83;;;16.20;53.90;;;;;;5001548;28;20473;-66
2023/03/23 08:50:03;;;;;;;5.03;2.30;;;16.20;54.20;;;;;;5001107;28;20809;-64
2023/03/23 08:52:30;;;;;;;1.90;1.80;;;16.20;54.20;;;;;;5002549;28;20446;-65
2023/03/23 08:54:57;;;;;;;3.07;2.10;;;16.20;53.90;;;;;;5000237;28;20450;-66
2023/03/23 08:57:25;;;;;;;2.83;2.27;;;16.30;54.10;;;;;;4996779;28;20474;-66
2023/03/23 08:59:53;;;;;;;1.70;1.57;;;16.20;54.60;;;;;;4997744;28;20496;-66
2023/03/23 09:02:23;;;;;;;2.57;2.00;;;16.20;54.70;;;;;;4998935;28;20866;-67
2023/03/23 09:04:50;;;;;;;5.17;1.90;;;16.20;54.50;;;;;;5001162;28;20452;-67
2023/03/23 09:07:17;;;;;;;2.60;2.40;;;16.10;55.00;;;;;;4999667;28;20486;-66
2023/03/23 09:09:44;;;;;;;5.93;3.40;;;16.00;55.00;;;;;;5001227;28;20833;-65
2023/03/23 09:12:12;;;;;;;3.60;2.10;;;16.10;55.90;;;;;;4995925;28;20477;-66
2023/03/23 09:14:39;;;;;;;3.20;2.30;;;16.20;55.60;;;;;;5000878;28;20447;-66
2023/03/23 09:17:07;;;;;;;3.43;2.23;;;16.30;55.30;;;;;;4997442;28;20476;-65
2023/03/23 09:19:35;;;;;;;3.27;2.20;;;16.30;55.50;;;;;;5002600;28;20887;-65
2023/03/23 09:22:03;;;;;;;3.10;2.47;;;16.40;55.20;;;;;;5001539;28;20483;-65
2023/03/23 09:24:30;;;;;;;2.90;1.90;;;16.50;55.30;;;;;;5000146;28;20457;-65
2023/03/23 09:26:58;;;;;;;2.30;2.10;;;16.50;54.90;;;;;;5000410;28;20866;-66
2023/03/23 09:29:26;;;;;;;7.80;2.80;;;16.50;55.20;;;;;;5007108;28;20530;-66
2023/03/23 09:31:53;;;;;;;6.57;2.67;;;16.70;55.40;;;;;;4998097;28;20452;-70
2023/03/23 09:34:20;;;;;;;9.30;2.97;;;16.70;54.80;;;;;;5003423;28;20443;-68
2023/03/23 09:36:49;;;;;;;2.53;1.90;;;16.80;54.50;;;;;;4999878;28;20453;-72
2023/03/23 09:39:16;;;;;;;3.57;1.90;;;16.80;55.10;;;;;;5001808;28;20461;-69
2023/03/23 09:41:59;;;;;;;3.33;2.13;;;16.70;55.00;;;;;;4999465;28;20454;-72
2023/03/23 09:44:35;;;;;;;3.00;2.10;;;16.80;55.10;;;;;;5005239;28;20455;-70
2023/03/23 09:47:07;;;;;;;3.60;1.90;;;16.90;54.30;;;;;;4996216;28;20566;-70
2023/03/23 09:49:41;;;;;;;2.10;1.73;;;16.90;54.20;;;;;;5002035;28;20454;-71
2023/03/23 09:52:13;;;;;;;2.33;1.70;;;17.00;53.90;;;;;;4997466;28;20460;-70
2023/03/23 09:54:42;;;;;;;2.87;2.17;;;17.00;54.00;;;;;;4999863;28;20473;-70
2023/03/23 09:57:16;;;;;;;1.87;1.60;;;17.10;54.30;;;;;;4992094;28;20463;-69
2023/03/23 09:59:50;;;;;;;1.90;1.70;;;17.00;54.00;;;;;;4994726;28;20453;-70
2023/03/23 10:02:20;;;;;;;1.63;1.53;;;16.90;54.40;;;;;;5000373;28;21020;-69
2023/03/23 10:04:49;;;;;;;2.00;1.80;;;17.10;54.00;;;;;;5005912;28;20827;-72
2023/03/23 10:07:19;;;;;;;3.80;2.00;;;17.00;54.40;;;;;;4998722;28;20523;-69
2023/03/23 10:09:49;;;;;;;2.33;2.07;;;16.80;54.20;;;;;;5001312;28;20447;-71
2023/03/23 10:12:24;;;;;;;3.43;1.90;;;16.70;55.00;;;;;;5000198;28;20547;-69
2023/03/23 10:15:03;;;;;;;4.43;1.90;;;16.60;54.80;;;;;;5005353;28;20813;-70
2023/03/23 10:17:34;;;;;;;2.07;1.60;;;16.60;55.30;;;;;;5000773;28;20466;-72
2023/03/23 10:20:19;;;;;;;8.30;1.60;;;16.90;54.60;;;;;;4999523;28;20459;-69
2023/03/23 10:22:52;;;;;;;2.00;1.37;;;17.10;53.50;;;;;;5002411;28;20457;-71
2023/03/23 10:25:23;;;;;;;2.03;1.43;;;17.10;53.70;;;;;;5002619;28;20451;-73
2023/03/23 10:27:58;;;;;;;6.13;1.50;;;17.10;54.30;;;;;;4999415;28;20487;-69
2023/03/23 10:30:28;;;;;;;2.27;1.60;;;17.00;54.70;;;;;;4997109;28;20463;-69
2023/03/23 10:32:59;;;;;;;2.87;1.60;;;16.80;54.50;;;;;;4998370;28;20457;-70
2023/03/23 10:35:44;;;;;;;3.40;2.07;;;17.00;54.60;;;;;;5002426;28;20451;-70
2023/03/23 10:38:18;;;;;;;2.20;1.67;;;17.30;54.20;;;;;;5002557;28;20487;-69
2023/03/23 10:40:50;;;;;;;1.90;1.77;;;17.90;53.70;;;;;;4998772;28;20523;-69
2023/03/23 10:43:18;;;;;;;2.67;1.80;;;18.20;52.70;;;;;;4999182;28;20458;-71
2023/03/23 10:45:49;;;;;;;6.70;2.10;;;17.60;52.80;;;;;;4999043;28;20454;-68
2023/03/23 10:48:25;;;;;;;1.83;1.70;;;17.10;54.20;;;;;;4998947;28;20470;-70
2023/03/23 10:50:57;;;;;;;3.57;2.03;;;16.80;55.30;;;;;;4998698;28;20541;-71
2023/03/23 10:53:31;;;;;;;2.07;1.87;;;16.50;56.10;;;;;;4995540;28;20446;-69
2023/03/23 10:55:59;;;;;;;3.03;2.07;;;16.50;56.60;;;;;;4996650;28;20451;-70
2023/03/23 10:58:29;;;;;;;2.83;1.77;;;16.50;56.90;;;;;;4999017;28;20567;-70
2023/03/23 11:00:57;;;;;;;4.80;1.80;;;16.60;57.30;;;;;;4998001;28;20509;-68
2023/03/23 11:03:32;;;;;;;3.67;1.60;;;16.60;56.90;;;;;;5004631;28;20456;-71
2023/03/23 11:06:03;;;;;;;4.67;1.40;;;16.80;56.90;;;;;;5001026;28;20897;-69
2023/03/23 11:08:35;;;;;;;3.23;1.60;;;17.10;56.70;;;;;;5003568;28;20475;-70
2023/03/23 11:11:10;;;;;;;3.23;1.60;;;17.10;56.40;;;;;;5005774;28;20836;-71
2023/03/23 11:13:42;;;;;;;2.23;1.53;;;17.20;56.40;;;;;;4997961;28;20450;-68
2023/03/23 11:16:10;;;;;;;7.03;2.43;;;17.30;56.60;;;;;;5004131;28;20869;-68
2023/03/23 11:18:42;;;;;;;2.10;1.80;;;17.20;56.30;;;;;;5003488;28;20481;-69
2023/03/23 11:21:12;;;;;;;5.80;2.17;;;17.00;57.00;;;;;;5003690;28;20457;-68
2023/03/23 11:23:43;;;;;;;4.97;1.90;;;16.90;57.20;;;;;;5008205;28;20820;-69
2023/03/23 11:26:15;;;;;;;2.93;1.70;;;16.80;57.90;;;;;;5000612;28;20452;-69
2023/03/23 11:28:45;;;;;;;2.63;1.53;;;16.80;57.90;;;;;;5000940;28;20476;-68
2023/03/23 11:31:12;;;;;;;7.87;3.33;;;16.70;58.30;;;;;;5000251;28;20458;-71
2023/03/23 11:33:54;;;;;;;3.17;2.13;;;16.70;58.60;;;;;;5000920;28;20443;-68
2023/03/23 11:36:23;;;;;;;4.60;2.30;;;16.80;58.60;;;;;;5002088;28;20456;-68
2023/03/23 11:38:57;;;;;;;3.10;1.67;;;17.00;59.10;;;;;;4997359;28;20553;-67
2023/03/23 11:41:25;;;;;;;1.60;1.40;;;17.30;57.80;;;;;;4999874;28;20543;-69
2023/03/23 11:43:53;;;;;;;1.80;1.50;;;17.60;56.90;;;;;;4999789;28;20462;-69
2023/03/23 11:46:32;;;;;;;1.90;1.60;;;17.90;57.60;;;;;;5002629;28;20485;-69
2023/03/23 11:49:02;;;;;;;4.50;1.63;;;18.10;56.20;;;;;;4998871;28;20445;-68
2023/03/23 11:51:35;;;;;;;1.83;1.73;;;18.40;55.70;;;;;;4999787;28;20454;-71
2023/03/23 11:54:16;;;;;;;3.90;1.80;;;18.60;53.50;;;;;;4999600;28;20446;-69
2023/03/23 11:56:45;;;;;;;1.77;1.67;;;18.50;54.00;;;;;;4998518;28;20459;-68
2023/03/23 11:59:15;;;;;;;2.20;1.87;;;18.70;54.00;;;;;;5006063;28;20531;-70
2023/03/23 12:01:50;;;;;;;3.93;2.70;;;18.70;53.90;;;;;;4998972;28;20454;-67
2023/03/23 12:04:33;;;;;;;5.10;1.80;;;18.80;54.00;;;;;;4999429;28;20544;-68
2023/03/23 12:07:28;;;;;;;2.70;1.80;;;19.00;52.60;;;;;;4994826;28;20509;-69
2023/03/23 12:10:03;;;;;;;2.30;2.00;;;19.10;52.10;;;;;;4999613;28;20446;-68
2023/03/23 12:12:39;;;;;;;3.73;2.07;;;18.80;51.60;;;;;;4997407;28;20474;-70
2023/03/23 12:15:18;;;;;;;2.00;1.83;;;18.40;51.80;;;;;;5001672;28;20842;-68
2023/03/23 12:17:52;;;;;;;2.03;1.80;;;18.10;51.60;;;;;;4996415;28;20469;-69
2023/03/23 12:20:29;;;;;;;2.00;1.60;;;17.90;51.50;;;;;;5003912;28;20951;-67
2023/03/23 12:23:17;;;;;;;3.13;1.83;;;17.90;52.20;;;;;;5004533;28;20484;-69
2023/03/23 12:26:05;;;;;;;1.73;1.60;;;18.10;51.90;;;;;;5002245;28;20832;-71
2023/03/23 12:28:44;;;;;;;1.73;1.57;;;18.30;50.60;;;;;;5001224;28;20478;-70
2023/03/23 12:31:16;;;;;;;2.27;2.07;;;18.20;51.10;;;;;;5001897;28;20456;-70
2023/03/23 12:33:55;;;;;;;3.43;2.03;;;18.10;50.90;;;;;;4998612;28;21028;-70
2023/03/23 12:36:35;;;;;;;2.20;1.67;;;18.10;51.60;;;;;;5002353;28;20442;-68
2023/03/23 12:39:25;;;;;;;2.00;1.80;;;18.10;51.80;;;;;;4997777;28;20457;-69
2023/03/23 12:41:56;;;;;;;3.27;2.30;;;18.10;52.10;;;;;;4988508;28;20823;-69
2023/03/23 12:44:34;;;;;;;2.20;2.00;;;18.30;52.80;;;;;;5008919;28;20442;-69
2023/03/23 12:47:20;;;;;;;3.83;1.87;;;18.40;55.20;;;;;;4997549;28;21032;-70
2023/03/23 12:49:54;;;;;;;3.40;1.60;;;18.80;52.40;;;;;;5004545;28;20450;-69
2023/03/23 12:52:26;;;;;;;3.20;1.90;;;18.90;51.10;;;;;;5000785;28;20824;-69
2023/03/23 12:54:59;;;;;;;2.77;2.00;;;19.00;52.40;;;;;;4996396;28;20454;-71
2023/03/23 12:57:32;;;;;;;2.00;1.53;;;18.70;54.80;;;;;;5004960;28;20474;-70
2023/03/23 13:00:10;;;;;;;3.23;2.20;;;18.60;56.20;;;;;;4998721;28;20446;-70
2023/03/23 13:02:45;;;;;;;2.40;2.20;;;18.60;55.60;;;;;;4998878;28;20450;-69